Time;durP1;ratioP1;P1;durP2;ratioP2;P2;SDS_P1;SDS_P2;PMS_P1;PMS_P2;Temp;Humidity;BMP_temperature;BMP_pressure;BME280_temperature;BME280_humidity;BME280_pressure;Samples;Min_cycle;Max_cycle;Signal;HPM_P1;HPM_P2
2022/10/11 00:00:59;;;;;;;12.27;2.72;;;;;;;7.37;100.00;102287.16;4870494;29;20044;-79
2022/10/11 00:03:28;;;;;;;20.25;2.78;;;;;;;7.36;100.00;102295.84;4857268;29;20049;-79
2022/10/11 00:05:56;;;;;;;12.00;2.55;;;;;;;7.35;100.00;102294.06;4876043;29;20041;-80
2022/10/11 00:08:25;;;;;;;12.95;2.50;;;;;;;7.34;100.00;102297.50;4836286;29;23477;-79
2022/10/11 00:11:02;;;;;;;6.78;2.08;;;;;;;7.33;100.00;102311.44;4897463;29;20058;-80
2022/10/11 00:13:32;;;;;;;12.35;3.10;;;;;;;7.32;100.00;102309.66;4903317;29;20062;-80
2022/10/11 00:16:06;;;;;;;12.98;3.30;;;;;;;7.31;100.00;102312.22;4910788;29;20042;-80
2022/10/11 00:18:35;;;;;;;13.88;2.90;;;;;;;7.27;100.00;102305.94;4918743;29;20346;-79
2022/10/11 00:21:05;;;;;;;18.70;2.90;;;;;;;7.27;100.00;102310.31;4895368;29;20044;-79
2022/10/11 00:23:34;;;;;;;14.55;2.75;;;;;;;7.22;100.00;102311.03;4856138;29;20470;-79
2022/10/11 00:26:05;;;;;;;11.30;2.72;;;;;;;7.22;100.00;102317.97;4907363;29;20501;-79
2022/10/11 00:28:35;;;;;;;9.23;2.75;;;;;;;7.19;100.00;102312.63;4900273;29;20261;-80
2022/10/11 00:31:12;;;;;;;10.00;2.08;;;;;;;7.17;100.00;102319.53;4927504;29;20385;-79
2022/10/11 00:33:41;;;;;;;12.00;2.50;;;;;;;7.16;100.00;102317.72;4902843;29;20067;-79
2022/10/11 00:36:12;;;;;;;13.35;2.38;;;;;;;7.13;100.00;102317.63;4908745;29;20047;-79
2022/10/11 00:38:41;;;;;;;8.65;2.33;;;;;;;7.11;100.00;102324.53;4877267;29;20036;-79
2022/10/11 00:41:13;;;;;;;15.52;2.60;;;;;;;7.08;100.00;102314.81;4884392;29;20552;-79
2022/10/11 00:43:42;;;;;;;9.07;2.60;;;;;;;7.08;100.00;102329.63;4885308;29;20066;-79
2022/10/11 00:46:17;;;;;;;13.20;3.45;;;;;;;7.06;100.00;102316.47;4891757;29;20541;-79
2022/10/11 00:48:49;;;;;;;13.98;3.65;;;;;;;7.04;100.00;102331.22;4886475;29;20082;-79
2022/10/11 00:51:41;;;;;;;8.93;2.50;;;;;;;7.03;100.00;102332.06;4906384;29;20036;-79
2022/10/11 00:54:14;;;;;;;17.92;3.00;;;;;;;7.00;100.00;102324.97;4901861;29;20056;-80
2022/10/11 00:56:48;;;;;;;10.95;3.05;;;;;;;7.01;100.00;102331.09;4872002;29;20028;-78
2022/10/11 00:59:26;;;;;;;10.95;2.42;;;;;;;7.00;100.00;102335.44;4900092;29;20052;-79
2022/10/11 01:01:55;;;;;;;19.15;2.63;;;;;;;6.99;100.00;102331.06;4909326;29;20421;-81
2022/10/11 01:04:23;;;;;;;16.58;2.88;;;;;;;6.97;100.00;102330.06;4884610;29;20052;-79
2022/10/11 01:06:53;;;;;;;15.75;2.72;;;;;;;6.95;100.00;102331.72;4853283;29;20040;-79
2022/10/11 01:09:22;;;;;;;11.70;3.17;;;;;;;6.94;100.00;102326.47;4905245;29;20059;-79
2022/10/11 01:11:54;;;;;;;13.02;2.58;;;;;;;6.91;100.00;102332.44;4888608;29;20054;-80
2022/10/11 01:14:23;;;;;;;17.85;2.97;;;;;;;6.90;100.00;102330.69;4899938;29;20505;-80
2022/10/11 01:17:04;;;;;;;14.05;2.70;;;;;;;6.89;100.00;102341.09;4926209;29;20039;-80
2022/10/11 01:19:44;;;;;;;14.07;3.05;;;;;;;6.85;100.00;102345.28;4920867;28;20245;-79
2022/10/11 01:22:28;;;;;;;12.63;2.63;;;;;;;6.86;100.00;102346.19;4879524;29;20067;-79
2022/10/11 01:25:32;;;;;;;12.13;2.50;;;;;;;6.87;100.00;102348.00;4901048;29;20055;-78
2022/10/11 01:28:11;;;;;;;18.10;2.90;;;;;;;6.88;100.00;102339.28;4858197;29;20064;-79
2022/10/11 01:30:41;;;;;;;12.70;2.47;;;;;;;6.93;100.00;102348.25;4859650;29;20249;-80
2022/10/11 01:33:23;;;;;;;12.88;2.53;;;;;;;6.98;100.00;102350.22;4907957;29;20063;-79
2022/10/11 01:36:10;;;;;;;15.33;2.87;;;;;;;7.05;100.00;102347.84;4897593;29;20232;-81
2022/10/11 01:38:50;;;;;;;11.05;2.75;;;;;;;7.09;100.00;102352.38;4909542;29;20295;-80
2022/10/11 01:41:39;;;;;;;10.32;2.13;;;;;;;7.15;100.00;102355.28;4883940;29;20042;-80
2022/10/11 01:44:09;;;;;;;11.75;2.33;;;;;;;7.17;100.00;102361.47;4906845;29;20051;-79
2022/10/11 01:46:39;;;;;;;7.82;2.35;;;;;;;7.18;100.00;102358.94;4902594;29;20155;-79
2022/10/11 01:49:08;;;;;;;13.07;2.35;;;;;;;7.18;100.00;102371.13;4879840;29;20052;-79
2022/10/11 01:51:47;;;;;;;10.50;2.20;;;;;;;7.16;100.00;102365.81;4903545;29;20655;-79
2022/10/11 01:54:15;;;;;;;11.88;2.08;;;;;;;7.15;100.00;102368.41;4911265;29;20040;-79
2022/10/11 01:56:49;;;;;;;10.38;2.25;;;;;;;7.14;100.00;102363.97;4889480;29;20504;-80
2022/10/11 01:59:27;;;;;;;14.88;2.58;;;;;;;7.11;100.00;102356.88;4926669;29;20043;-79
2022/10/11 02:02:18;;;;;;;8.60;2.35;;;;;;;7.11;100.00;102361.25;4904216;29;20036;-79
2022/10/11 02:04:55;;;;;;;10.88;2.70;;;;;;;7.10;100.00;102364.66;4905453;29;20063;-80
2022/10/11 02:07:39;;;;;;;13.93;2.95;;;;;;;7.07;100.00;102368.06;4877110;29;20040;-80
2022/10/11 02:10:12;;;;;;;9.55;2.15;;;;;;;7.06;100.00;102365.38;4911219;29;20043;-79
2022/10/11 02:12:59;;;;;;;12.55;2.33;;;;;;;7.02;100.00;102374.84;4854158;29;22604;-79
2022/10/11 02:15:31;;;;;;;10.15;2.78;;;;;;;6.99;100.00;102367.75;4914810;29;20417;-79
2022/10/11 02:18:06;;;;;;;14.65;2.63;;;;;;;6.95;100.00;102370.16;4919788;29;20048;-79
2022/10/11 02:20:38;;;;;;;12.77;2.38;;;;;;;6.91;100.00;102373.50;4908475;29;20712;-79
2022/10/11 02:23:14;;;;;;;11.82;2.67;;;;;;;6.86;100.00;102370.66;4921225;29;20048;-79
2022/10/11 02:25:44;;;;;;;12.45;2.00;;;;;;;6.82;100.00;102374.91;4894338;29;20036;-79
2022/10/11 02:28:21;;;;;;;21.20;2.58;;;;;;;6.80;100.00;102371.28;4895213;29;20056;-79
2022/10/11 02:30:52;;;;;;;12.95;2.50;;;;;;;6.82;100.00;102376.59;4925854;29;20505;-79
2022/10/11 02:33:29;;;;;;;19.27;2.88;;;;;;;6.79;100.00;102384.34;4894054;29;20075;-79
2022/10/11 02:36:04;;;;;;;12.82;2.30;;;;;;;6.76;100.00;102385.09;4922748;29;20051;-79
2022/10/11 02:38:38;;;;;;;9.63;2.33;;;;;;;6.74;100.00;102381.50;4903025;29;20541;-80
2022/10/11 02:41:28;;;;;;;15.65;2.63;;;;;;;6.72;100.00;102383.16;4921156;29;20509;-79
2022/10/11 02:44:10;;;;;;;10.43;2.80;;;;;;;6.70;100.00;102397.03;4911177;29;20059;-78
2022/10/11 02:46:41;;;;;;;9.60;2.17;;;;;;;6.68;100.00;102390.84;4888803;29;20040;-79
2022/10/11 02:49:12;;;;;;;19.33;2.70;;;;;;;6.66;100.00;102385.53;4907423;29;20056;-79
2022/10/11 02:51:41;;;;;;;7.18;1.85;;;;;;;6.64;100.00;102388.06;4908627;29;20057;-79
2022/10/11 02:54:09;;;;;;;13.35;2.38;;;;;;;6.63;100.00;102399.41;4871513;29;20044;-80
2022/10/11 02:56:37;;;;;;;18.38;3.40;;;;;;;6.62;100.00;102397.59;4889018;29;20437;-79
2022/10/11 02:59:06;;;;;;;15.55;2.75;;;;;;;6.60;100.00;102388.78;4893781;29;20052;-79
2022/10/11 03:01:34;;;;;;;15.02;2.90;;;;;;;6.60;100.00;102383.53;4847686;29;20040;-80
2022/10/11 03:04:03;;;;;;;10.55;2.25;;;;;;;6.59;100.00;102391.31;4889258;29;20505;-80
2022/10/11 03:06:31;;;;;;;16.60;3.08;;;;;;;6.57;100.00;102396.50;4890794;29;20124;-80
2022/10/11 03:09:00;;;;;;;7.00;2.47;;;;;;;6.57;100.00;102398.22;4894774;29;20062;-80
2022/10/11 03:11:28;;;;;;;15.90;2.33;;;;;;;6.55;100.00;102402.50;4869946;29;20239;-80
2022/10/11 03:13:56;;;;;;;11.48;2.22;;;;;;;6.54;100.00;102399.00;4909576;29;20052;-79
2022/10/11 03:16:25;;;;;;;11.85;2.47;;;;;;;6.52;100.00;102402.34;4854270;29;20350;-80
2022/10/11 03:18:53;;;;;;;13.43;2.70;;;;;;;6.51;100.00;102403.19;4888068;29;20043;-79
2022/10/11 03:21:23;;;;;;;13.52;2.78;;;;;;;6.51;100.00;102408.44;4890886;29;20043;-80
2022/10/11 03:23:52;;;;;;;9.70;2.88;;;;;;;6.51;100.00;102408.44;4926951;29;20056;-79
2022/10/11 03:26:21;;;;;;;11.55;2.40;;;;;;;6.50;100.00;102402.28;4885836;29;20044;-79
2022/10/11 03:28:49;;;;;;;15.60;3.63;;;;;;;6.50;100.00;102404.00;4893682;29;20043;-80
2022/10/11 03:31:19;;;;;;;8.93;2.13;;;;;;;6.50;100.00;102407.50;4869005;29;20050;-80
2022/10/11 03:33:48;;;;;;;9.63;2.45;;;;;;;6.50;100.00;102410.13;4888703;29;20055;-80
2022/10/11 03:36:16;;;;;;;16.55;3.70;;;;;;;6.48;100.00;102406.53;4905167;29;20501;-79
2022/10/11 03:38:45;;;;;;;13.38;2.80;;;;;;;6.48;100.00;102411.78;4908359;29;20043;-79
2022/10/11 03:41:13;;;;;;;14.38;4.25;;;;;;;6.48;100.00;102419.63;4888209;29;20051;-81
2022/10/11 03:43:42;;;;;;;19.13;4.05;;;;;;;6.47;100.00;102404.78;4892379;29;20536;-79
2022/10/11 03:46:10;;;;;;;11.60;2.30;;;;;;;6.49;100.00;102408.34;4916330;29;20048;-81
2022/10/11 03:48:38;;;;;;;10.93;2.72;;;;;;;6.50;100.00;102412.75;4853933;29;20039;-79
2022/10/11 03:51:07;;;;;;;14.25;3.72;;;;;;;6.51;100.00;102416.28;4906692;29;20390;-80
2022/10/11 03:53:35;;;;;;;12.18;2.55;;;;;;;6.49;100.00;102416.22;4893386;29;20039;-80
2022/10/11 03:56:04;;;;;;;14.45;2.58;;;;;;;6.47;100.00;102415.25;4900620;29;20402;-79
2022/10/11 03:58:35;;;;;;;12.00;2.40;;;;;;;6.47;100.00;102428.34;4901594;29;20252;-80
2022/10/11 04:01:04;;;;;;;15.98;2.45;;;;;;;6.47;100.00;102433.59;4897921;29;20043;-79
2022/10/11 04:03:32;;;;;;;11.80;2.30;;;;;;;6.44;100.00;102428.19;4862216;29;20040;-79
2022/10/11 04:06:00;;;;;;;13.68;2.63;;;;;;;6.44;100.00;102420.34;4902624;29;20051;-79
2022/10/11 04:08:29;;;;;;;5.15;1.92;;;;;;;6.44;100.00;102429.06;4920804;29;20341;-80
2022/10/11 04:10:58;;;;;;;11.00;2.58;;;;;;;6.43;100.00;102431.66;4878484;29;20051;-80
2022/10/11 04:13:26;;;;;;;7.70;2.55;;;;;;;6.41;100.00;102431.59;4872773;29;20156;-79
2022/10/11 04:15:55;;;;;;;16.15;3.13;;;;;;;6.40;100.00;102427.16;4894344;29;20050;-79
2022/10/11 04:18:25;;;;;;;13.55;2.60;;;;;;;6.40;100.00;102426.28;4855685;29;21170;-79
2022/10/11 04:20:53;;;;;;;12.05;2.25;;;;;;;6.39;100.00;102441.09;4895557;29;20036;-79
2022/10/11 04:23:22;;;;;;;11.30;2.33;;;;;;;6.41;100.00;102433.31;4872918;29;20547;-79
2022/10/11 04:25:50;;;;;;;10.95;3.65;;;;;;;6.39;100.00;102443.72;4912030;29;20510;-81
2022/10/11 04:28:19;;;;;;;12.90;4.22;;;;;;;6.40;100.00;102447.22;4881323;29;20063;-79
2022/10/11 04:30:47;;;;;;;17.08;3.67;;;;;;;6.39;100.00;102443.72;4909065;29;20051;-79
2022/10/11 04:33:16;;;;;;;19.83;3.13;;;;;;;6.38;100.00;102452.38;4905990;29;20051;-79
2022/10/11 04:35:44;;;;;;;11.02;2.72;;;;;;;6.39;100.00;102458.50;4890139;29;20055;-79
2022/10/11 04:38:12;;;;;;;12.55;1.98;;;;;;;6.38;100.00;102456.72;4881404;29;20142;-80
2022/10/11 04:40:41;;;;;;;13.20;2.50;;;;;;;6.39;100.00;102453.25;4894601;29;20042;-81
2022/10/11 04:43:09;;;;;;;13.48;2.80;;;;;;;6.38;100.00;102454.09;4885739;29;20139;-81
2022/10/11 04:45:37;;;;;;;14.73;2.53;;;;;;;6.38;100.00;102448.88;4893297;29;20100;-80
2022/10/11 04:48:06;;;;;;;17.88;7.55;;;;;;;6.38;100.00;102456.72;4903967;29;20052;-80
2022/10/11 04:50:35;;;;;;;19.50;4.30;;;;;;;6.38;100.00;102459.34;4871251;29;20047;-81
2022/10/11 04:53:07;;;;;;;15.63;3.30;;;;;;;6.37;100.00;102460.16;4886994;29;20395;-79
2022/10/11 04:55:36;;;;;;;13.65;2.33;;;;;;;6.38;100.00;102465.47;4881433;29;20055;-78
2022/10/11 04:58:06;;;;;;;10.73;2.38;;;;;;;6.36;100.00;102467.13;4909705;29;20081;-80
2022/10/11 05:00:34;;;;;;;25.20;3.63;;;;;;;6.37;100.00;102470.63;4906201;29;20381;-80
2022/10/11 05:03:03;;;;;;;12.48;3.40;;;;;;;6.37;100.00;102470.63;4890804;29;20296;-80
2022/10/11 05:05:31;;;;;;;13.73;2.58;;;;;;;6.38;100.00;102472.44;4901473;29;20047;-80
2022/10/11 05:08:01;;;;;;;14.35;3.95;;;;;;;6.38;100.00;102475.06;4864165;29;20063;-80
2022/10/11 05:10:29;;;;;;;13.65;2.92;;;;;;;6.38;100.00;102462.84;4848704;29;20055;-80
2022/10/11 05:12:57;;;;;;;11.90;3.03;;;;;;;6.38;100.00;102472.44;4891307;29;20035;-81
2022/10/11 05:15:26;;;;;;;13.10;3.20;;;;;;;6.36;100.00;102472.38;4878093;29;20191;-80
2022/10/11 05:17:54;;;;;;;13.52;5.68;;;;;;;6.37;100.00;102475.88;4897868;29;20039;-83
2022/10/11 05:20:22;;;;;;;9.70;2.63;;;;;;;6.36;100.00;102481.94;4909953;29;20245;-83
2022/10/11 05:22:51;;;;;;;15.55;2.67;;;;;;;6.36;100.00;102476.72;4874989;29;20070;-82
2022/10/11 05:25:21;;;;;;;15.40;3.55;;;;;;;6.36;100.00;102476.72;4876138;29;20036;-82
2022/10/11 05:27:49;;;;;;;12.05;3.40;;;;;;;6.35;100.00;102486.28;4882774;29;20366;-84
2022/10/11 05:30:18;;;;;;;12.32;3.50;;;;;;;6.36;100.00;102502.91;4876515;29;20243;-82
2022/10/11 05:32:46;;;;;;;14.07;3.15;;;;;;;6.37;100.00;102499.44;4928994;29;20048;-82
2022/10/11 05:35:14;;;;;;;13.88;2.50;;;;;;;6.38;100.00;102498.63;4895089;29;20051;-83
2022/10/11 05:37:44;;;;;;;12.57;2.90;;;;;;;6.40;100.00;102504.81;4898917;29;20405;-82
2022/10/11 05:40:13;;;;;;;13.70;2.45;;;;;;;6.42;100.00;102509.28;4871151;29;20047;-82
2022/10/11 05:42:41;;;;;;;8.68;2.58;;;;;;;6.43;100.00;102515.47;4926937;29;20050;-82
2022/10/11 05:45:10;;;;;;;15.50;2.35;;;;;;;6.43;100.00;102520.69;4872845;29;20036;-82
2022/10/11 05:47:38;;;;;;;14.90;2.40;;;;;;;6.41;100.00;102518.00;4879016;29;20152;-82
2022/10/11 05:50:07;;;;;;;12.43;2.25;;;;;;;6.40;100.00;102516.19;4878386;29;20047;-82
2022/10/11 05:52:36;;;;;;;9.75;2.03;;;;;;;6.39;100.00;102524.88;4888068;29;20063;-82
2022/10/11 05:55:04;;;;;;;18.48;3.33;;;;;;;6.38;100.00;102517.84;4863454;29;20047;-81
2022/10/11 05:57:33;;;;;;;9.68;2.38;;;;;;;6.38;100.00;102527.44;4875928;29;20051;-82
2022/10/11 06:00:02;;;;;;;10.32;2.38;;;;;;;6.39;100.00;102530.13;4864538;29;20055;-82
2022/10/11 06:02:39;;;;;;;15.50;3.33;;;;;;;6.38;100.00;102522.19;4890483;29;20040;-81
2022/10/11 06:05:08;;;;;;;11.30;2.38;;;;;;;6.38;100.00;102530.94;4910302;29;20047;-83
2022/10/11 06:07:38;;;;;;;11.23;2.28;;;;;;;6.37;100.00;102534.41;4881481;29;20270;-82
2022/10/11 06:10:07;;;;;;;15.05;2.80;;;;;;;6.37;100.00;102533.47;4894231;29;20051;-82
2022/10/11 06:12:35;;;;;;;8.80;2.40;;;;;;;6.38;100.00;102541.41;4888380;29;20258;-81
2022/10/11 06:15:05;;;;;;;12.55;2.75;;;;;;;6.39;100.00;102542.28;4881357;29;20040;-81
2022/10/11 06:17:34;;;;;;;11.57;2.60;;;;;;;6.41;100.00;102543.28;4881576;29;20792;-83
2022/10/11 06:20:03;;;;;;;9.82;2.80;;;;;;;6.43;100.00;102544.25;4873239;29;20043;-81
2022/10/11 06:22:34;;;;;;;12.65;2.55;;;;;;;6.43;100.00;102547.78;4910421;29;20063;-82
2022/10/11 06:25:03;;;;;;;14.77;2.65;;;;;;;6.46;100.00;102546.13;4879232;29;20059;-81
2022/10/11 06:27:31;;;;;;;28.23;3.30;;;;;;;6.49;100.00;102554.13;4858427;29;20043;-81
2022/10/11 06:29:59;;;;;;;14.73;2.80;;;;;;;6.51;100.00;102555.09;4900683;29;20067;-82
2022/10/11 06:32:28;;;;;;;10.77;2.38;;;;;;;6.53;100.00;102549.09;4865435;29;20502;-81
2022/10/11 06:34:56;;;;;;;10.88;2.65;;;;;;;6.57;100.00;102552.75;4904841;29;20075;-82
2022/10/11 06:37:25;;;;;;;11.63;2.80;;;;;;;6.61;100.00;102552.06;4894181;29;20047;-82
2022/10/11 06:39:53;;;;;;;21.65;3.25;;;;;;;6.63;100.00;102558.28;4843590;29;20048;-82
2022/10/11 06:42:21;;;;;;;19.55;3.00;;;;;;;6.68;100.00;102553.28;4887421;29;20245;-82
2022/10/11 06:44:50;;;;;;;16.88;2.92;;;;;;;6.73;100.00;102554.34;4900350;29;20051;-82
2022/10/11 06:47:19;;;;;;;7.70;2.80;;;;;;;6.80;100.00;102556.44;4889582;29;20170;-82
2022/10/11 06:49:47;;;;;;;11.80;2.55;;;;;;;6.91;100.00;102565.69;4897326;29;20514;-82
2022/10/11 06:52:15;;;;;;;14.48;2.50;;;;;;;7.01;100.00;102565.31;4886977;29;20044;-81
2022/10/11 06:54:44;;;;;;;14.05;2.20;;;;;;;7.14;100.00;102568.47;4878394;29;20524;-81
2022/10/11 06:57:13;;;;;;;10.52;2.20;;;;;;;7.27;100.00;102577.78;4854839;29;20723;-81
2022/10/11 06:59:41;;;;;;;9.32;2.38;;;;;;;7.37;100.00;102567.75;4911948;29;20044;-81
2022/10/11 07:02:09;;;;;;;10.95;2.70;;;;;;;7.51;100.00;102576.22;4868054;29;20064;-81
2022/10/11 07:04:38;;;;;;;9.23;2.05;;;;;;;7.63;100.00;102583.72;4892543;29;20055;-80
2022/10/11 07:07:06;;;;;;;13.05;2.38;;;;;;;7.72;100.00;102593.72;4867144;29;20048;-82
2022/10/11 07:09:34;;;;;;;9.02;2.13;;;;;;;7.80;100.00;102577.44;4881328;29;20048;-82
2022/10/11 07:12:03;;;;;;;22.67;2.78;;;;;;;7.89;100.00;102583.94;4840131;29;20410;-82
2022/10/11 07:14:31;;;;;;;9.20;2.22;;;;;;;7.95;100.00;102581.56;4880037;29;20055;-81
2022/10/11 07:17:00;;;;;;;7.65;3.28;;;;;;;8.03;100.00;102587.13;4860588;29;20062;-81
2022/10/11 07:19:28;;;;;;;10.10;2.45;;;;;;;8.08;100.00;102590.84;4881776;29;20059;-81
2022/10/11 07:21:56;;;;;;;13.55;2.47;;;;;;;8.13;100.00;102598.09;4876568;29;20048;-83
2022/10/11 07:24:25;;;;;;;17.13;2.72;;;;;;;8.17;100.00;102592.13;4893651;29;20059;-81
2022/10/11 07:26:54;;;;;;;12.98;3.20;;;;;;;8.23;100.00;102596.72;4868544;29;20512;-83
2022/10/11 07:29:23;;;;;;;12.18;2.80;;;;;;;8.27;100.00;102601.28;4897044;29;20071;-81
2022/10/11 07:31:55;;;;;;;12.40;3.25;;;;;;;8.31;100.00;102605.81;4885963;29;20047;-82
2022/10/11 07:34:23;;;;;;;15.85;2.88;;;;;;;8.36;100.00;102612.16;4881772;29;20048;-82
2022/10/11 07:37:22;;;;;;;14.80;2.97;;;;;;;8.41;100.00;102604.44;5154453;27;21776;-81
2022/10/11 07:39:51;;;;;;;18.35;2.65;;;;;;;8.47;100.00;102615.25;5163082;27;20066;-81
2022/10/11 07:42:21;;;;;;;9.25;2.13;;;;;;;8.52;100.00;102613.69;5113438;27;20174;-81
2022/10/11 07:44:49;;;;;;;12.30;2.50;;;;;;;8.57;100.00;102606.88;5120802;27;20047;-83
2022/10/11 07:47:18;;;;;;;18.10;2.85;;;;;;;8.62;100.00;102611.44;5125387;27;20061;-80
2022/10/11 07:49:46;;;;;;;11.80;3.03;;;;;;;8.67;100.00;102613.41;5154767;27;20049;-83
2022/10/11 07:52:14;;;;;;;13.98;2.50;;;;;;;8.72;100.00;102610.97;5153711;27;20091;-82
2022/10/11 07:54:43;;;;;;;11.85;2.53;;;;;;;8.80;100.00;102612.16;5119895;27;20057;-84
2022/10/11 07:57:11;;;;;;;9.10;2.38;;;;;;;9.00;100.00;102609.38;5162245;27;20194;-81
2022/10/11 07:59:40;;;;;;;11.38;2.72;;;;;;;9.26;100.00;102600.75;5078442;27;20031;-81
2022/10/11 08:02:16;;;;;;;10.55;2.65;;;;;;;9.62;100.00;102610.81;5129148;27;20046;-82
2022/10/11 08:04:44;;;;;;;16.75;3.60;;;;;;;9.98;100.00;102612.00;5122987;27;20049;-82
2022/10/11 08:07:12;;;;;;;13.45;2.88;;;;;;;10.38;100.00;102616.91;5115144;27;20311;-82
2022/10/11 08:09:41;;;;;;;8.27;2.78;;;;;;;10.79;100.00;102617.28;5122761;27;20038;-82
2022/10/11 08:12:09;;;;;;;12.07;2.33;;;;;;;11.17;100.00;102614.91;5133279;27;20242;-82
2022/10/11 08:14:40;;;;;;;12.20;2.42;;;;;;;11.52;100.00;102618.53;5090782;27;20035;-82
2022/10/11 08:17:08;;;;;;;7.80;2.45;;;;;;;11.84;100.00;102612.34;5142208;27;20034;-82
2022/10/11 08:19:36;;;;;;;8.80;2.17;;;;;;;12.00;100.00;102605.72;5128839;27;20046;-82
2022/10/11 08:22:06;;;;;;;12.35;2.33;;;;;;;12.08;100.00;102612.13;5119274;27;20030;-81
2022/10/11 08:24:34;;;;;;;9.68;2.30;;;;;;;12.17;100.00;102611.44;5133110;27;20387;-82
2022/10/11 08:27:05;;;;;;;11.88;2.63;;;;;;;12.17;100.00;102617.59;5160436;27;20035;-82
2022/10/11 08:29:34;;;;;;;7.47;1.85;;;;;;;12.11;100.00;102620.09;5075375;27;20034;-83
2022/10/11 08:32:02;;;;;;;14.32;2.38;;;;;;;11.99;100.00;102618.06;5104580;27;20062;-82
2022/10/11 08:34:30;;;;;;;10.20;2.83;;;;;;;11.86;100.00;102623.84;5116584;27;20035;-82
2022/10/11 08:36:58;;;;;;;14.48;2.97;;;;;;;11.83;100.00;102623.75;5123606;27;20046;-82
2022/10/11 08:39:27;;;;;;;9.00;2.20;;;;;;;11.92;100.00;102626.66;5115509;27;20047;-82
2022/10/11 08:42:03;;;;;;;12.55;2.33;;;;;;;12.11;100.00;102632.44;5121903;27;20061;-83
2022/10/11 08:44:53;;;;;;;10.65;2.53;;;;;;;12.34;100.00;102631.22;5112331;27;20050;-82
2022/10/11 08:47:43;;;;;;;7.93;2.47;;;;;;;12.57;100.00;102628.25;5104719;27;20499;-81
2022/10/11 08:50:18;;;;;;;11.35;2.78;;;;;;;12.75;100.00;102639.25;5112238;27;20346;-83
2022/10/11 08:53:01;;;;;;;10.52;2.67;;;;;;;12.93;100.00;102638.78;5123750;27;20035;-84
2022/10/11 08:55:32;;;;;;;7.43;2.55;;;;;;;13.07;100.00;102634.69;5116821;27;20050;-81
2022/10/11 08:58:01;;;;;;;10.90;2.10;;;;;;;13.16;100.00;102636.63;5108239;27;20034;-82
2022/10/11 09:00:34;;;;;;;6.60;2.08;;;;;;;13.26;100.00;102643.00;5093848;27;20514;-82
2022/10/11 09:03:05;;;;;;;15.80;2.75;;;;;;;13.34;100.00;102643.19;5113123;27;20054;-83
2022/10/11 09:05:50;;;;;;;7.40;2.10;;;;;;;13.38;100.00;102640.66;5121625;27;20034;-83
2022/10/11 09:08:37;;;;;;;8.93;2.53;;;;;;;13.40;100.00;102645.97;5112163;27;20248;-83
2022/10/11 09:11:21;;;;;;;12.13;2.35;;;;;;;13.39;100.00;102644.19;5100636;27;20066;-82
2022/10/11 09:14:25;;;;;;;11.07;1.80;;;;;;;13.35;100.00;102650.28;5067000;28;20056;-82
2022/10/11 09:17:20;;;;;;;7.78;2.13;;;;;;;13.34;100.00;102653.78;5030034;28;20504;-82
2022/10/11 09:20:10;;;;;;;7.20;2.08;;;;;;;13.31;100.00;102662.56;5062161;28;20052;-83
2022/10/11 09:23:04;;;;;;;6.00;2.15;;;;;;;13.31;100.00;102659.94;5068846;28;20532;-83
2022/10/11 09:25:43;;;;;;;9.45;2.10;;;;;;;13.32;100.00;102652.88;5059198;28;20046;-80
2022/10/11 09:28:33;;;;;;;11.07;2.25;;;;;;;13.30;100.00;102652.84;5049043;28;20047;-82
2022/10/11 09:31:01;;;;;;;10.50;2.88;;;;;;;13.26;100.00;102653.59;5041471;28;20055;-82
2022/10/11 09:33:42;;;;;;;12.82;2.40;;;;;;;13.28;100.00;102651.88;5083438;28;20064;-82
2022/10/11 09:36:27;;;;;;;13.32;2.67;;;;;;;13.31;100.00;102653.72;5059577;28;20352;-82
2022/10/11 09:39:30;;;;;;;10.43;2.25;;;;;;;13.33;100.00;102655.56;5062091;28;20067;-82
2022/10/11 09:42:16;;;;;;;7.95;2.38;;;;;;;13.35;100.00;102650.28;5072094;28;20040;-83
2022/10/11 09:44:51;;;;;;;12.23;2.40;;;;;;;13.39;100.00;102660.09;5055312;28;20534;-83
2022/10/11 09:47:27;;;;;;;10.73;3.65;;;;;;;13.48;100.00;102660.28;5043876;28;20320;-82
2022/10/11 09:49:59;;;;;;;12.75;2.50;;;;;;;13.55;100.00;102653.31;5055612;28;20504;-84
2022/10/11 09:52:28;;;;;;;14.32;3.65;;;;;;;13.62;100.00;102649.94;5087421;28;20044;-82
2022/10/11 09:55:00;;;;;;;10.20;2.30;;;;;;;13.69;100.00;102657.16;5069999;28;20048;-82
2022/10/11 09:57:37;;;;;;;8.95;2.00;;;;;;;13.76;100.00;102658.13;5080973;28;20043;-82
2022/10/11 10:00:23;;;;;;;7.75;1.75;;;;;;;13.79;100.00;102656.44;5075940;28;20164;-82
2022/10/11 10:02:57;;;;;;;11.52;2.53;;;;;;;13.88;100.00;102663.69;5058025;28;20034;-82
2022/10/11 10:05:27;;;;;;;9.40;2.63;;;;;;;13.95;100.00;102680.56;5101505;28;20400;-82
2022/10/11 10:08:05;;;;;;;8.00;1.90;;;;;;;13.98;100.00;102664.75;5079492;28;20043;-84
2022/10/11 10:11:08;;;;;;;9.02;2.17;;;;;;;14.07;100.00;102669.31;5091895;27;20040;-82
2022/10/11 10:13:53;;;;;;;13.68;2.95;;;;;;;14.14;100.00;102665.88;5092584;28;20036;-82
2022/10/11 10:16:31;;;;;;;10.57;2.30;;;;;;;14.22;100.00;102677.53;5093696;28;20043;-82
2022/10/11 10:19:02;;;;;;;10.73;2.95;;;;;;;14.26;100.00;102673.19;5058497;28;20051;-82
2022/10/11 10:21:42;;;;;;;10.75;2.22;;;;;;;14.33;100.00;102678.63;5105702;28;20035;-82
2022/10/11 10:24:37;;;;;;;11.45;2.00;;;;;;;14.49;100.00;102676.22;5085455;28;20579;-82
2022/10/11 10:27:09;;;;;;;7.85;2.35;;;;;;;14.60;100.00;102674.66;5107019;27;20554;-82
2022/10/11 10:29:40;;;;;;;9.85;2.72;;;;;;;14.60;100.00;102674.66;5085485;28;20044;-81
2022/10/11 10:32:20;;;;;;;8.88;2.22;;;;;;;14.59;100.00;102691.44;5050884;28;20102;-82
2022/10/11 10:35:08;;;;;;;7.65;2.08;;;;;;;14.54;100.00;102674.53;5106383;27;20047;-83
2022/10/11 10:38:02;;;;;;;11.80;2.28;;;;;;;14.47;100.00;102678.84;5136837;27;20511;-82
2022/10/11 10:40:47;;;;;;;10.10;2.40;;;;;;;14.41;100.00;102679.63;5126532;27;20043;-82
2022/10/11 10:43:18;;;;;;;7.47;2.47;;;;;;;14.30;100.00;102675.91;5103430;27;20039;-82
2022/10/11 10:45:53;;;;;;;9.07;2.42;;;;;;;14.26;100.00;102674.06;5089729;27;20467;-83
2022/10/11 10:48:54;;;;;;;9.85;2.58;;;;;;;14.21;100.00;102676.66;5079354;27;20191;-82
2022/10/11 10:52:04;;;;;;;8.73;2.38;;;;;;;14.21;100.00;102670.44;5140092;27;20046;-82
2022/10/11 10:55:05;;;;;;;8.52;2.45;;;;;;;14.37;100.00;102672.50;5106653;27;20404;-81
2022/10/11 10:58:06;;;;;;;7.97;1.85;;;;;;;14.57;100.00;102674.59;5120121;27;20088;-81
2022/10/11 11:00:47;;;;;;;8.43;1.77;;;;;;;14.81;100.00;102669.66;5135272;27;20391;-81
2022/10/11 11:03:22;;;;;;;11.93;2.20;;;;;;;14.93;100.00;102674.28;5108172;27;20536;-80
2022/10/11 11:06:28;;;;;;;12.38;2.15;;;;;;;14.90;100.00;102668.91;5070485;27;20050;-83
2022/10/11 11:09:28;;;;;;;7.63;1.90;;;;;;;14.77;100.00;102672.25;5099460;27;20047;-84
2022/10/11 11:12:05;;;;;;;10.15;2.55;;;;;;;14.64;100.00;102671.19;5085509;27;20035;-81
2022/10/11 11:14:49;;;;;;;10.38;2.53;;;;;;;14.49;100.00;102676.22;5123505;27;20050;-81
2022/10/11 11:17:36;;;;;;;7.80;2.25;;;;;;;14.32;100.00;102681.25;5108116;27;20523;-82
2022/10/11 11:20:32;;;;;;;11.10;2.55;;;;;;;14.21;100.00;102679.31;5097650;27;20042;-80
2022/10/11 11:23:22;;;;;;;10.50;2.03;;;;;;;14.10;100.00;102680.88;5136253;27;20053;-80
2022/10/11 11:26:09;;;;;;;9.55;2.17;;;;;;;13.99;100.00;102677.16;5115770;27;20027;-81
2022/10/11 11:29:12;;;;;;;11.10;1.80;;;;;;;13.94;100.00;102674.38;5093143;27;20027;-81
2022/10/11 11:31:58;;;;;;;4.90;1.60;;;;;;;13.93;100.00;102669.97;5135546;27;20503;-82
2022/10/11 11:34:42;;;;;;;9.07;2.50;;;;;;;13.98;100.00;102668.28;5103278;27;20039;-81
2022/10/11 11:37:37;;;;;;;7.40;1.95;;;;;;;14.04;100.00;102668.41;5083371;27;20039;-81
2022/10/11 11:40:11;;;;;;;6.78;1.58;;;;;;;14.05;100.00;102664.00;5124811;27;20039;-81
2022/10/11 11:42:47;;;;;;;9.57;1.50;;;;;;;14.04;100.00;102667.50;5116137;27;20047;-81
2022/10/11 11:45:50;;;;;;;9.35;2.05;;;;;;;13.98;100.00;102664.75;5103909;27;20408;-83
2022/10/11 11:48:23;;;;;;;10.93;2.38;;;;;;;13.91;100.00;102661.06;5099918;27;20051;-81